createdAt,value
2023-01-17T00:02:01.033Z,9.97
2023-01-17T00:04:48.300Z,10.17
2023-01-17T00:07:36.258Z,14.90
2023-01-17T00:10:07.791Z,5.37
2023-01-17T00:12:36.745Z,7.93
2023-01-17T00:15:06.037Z,7.93
2023-01-17T00:17:34.427Z,5.80
2023-01-17T00:20:21.546Z,7.67
2023-01-17T00:23:07.189Z,7.60
2023-01-17T00:25:55.983Z,4.43
2023-01-17T00:28:23.788Z,6.30
2023-01-17T00:30:50.935Z,9.07
2023-01-17T00:33:18.843Z,9.37
2023-01-17T00:35:47.468Z,11.40
2023-01-17T00:38:16.454Z,8.60
2023-01-17T00:40:45.395Z,9.90
2023-01-17T00:43:32.641Z,9.10
2023-01-17T00:46:18.772Z,13.53
2023-01-17T00:49:04.915Z,6.97
2023-01-17T00:51:53.611Z,5.00
2023-01-17T00:54:39.447Z,9.07
2023-01-17T00:57:26.503Z,8.57
2023-01-17T01:00:12.529Z,8.57
2023-01-17T01:02:58.483Z,5.10
2023-01-17T01:05:44.627Z,6.00
2023-01-17T01:08:40.552Z,9.63
2023-01-17T01:11:30.493Z,8.17
2023-01-17T01:14:18.163Z,6.27
2023-01-17T01:17:03.783Z,5.60
2023-01-17T01:19:49.814Z,6.37
2023-01-17T01:22:35.777Z,7.30
2023-01-17T01:25:23.645Z,6.73
2023-01-17T01:28:09.582Z,7.40
2023-01-17T01:30:55.563Z,6.80
2023-01-17T01:33:22.882Z,12.10
2023-01-17T01:35:52.524Z,8.10
2023-01-17T01:38:22.400Z,8.30
2023-01-17T01:40:53.844Z,9.53
2023-01-17T01:43:40.840Z,12.50
2023-01-17T01:46:11.175Z,8.90
2023-01-17T01:48:42.670Z,8.27
2023-01-17T01:51:17.342Z,6.80
2023-01-17T01:53:50.212Z,4.93
2023-01-17T01:56:20.584Z,5.27
2023-01-17T01:58:52.005Z,8.37
2023-01-17T02:01:21.180Z,14.83
2023-01-17T02:03:50.347Z,6.80
2023-01-17T02:06:31.125Z,12.70
2023-01-17T02:09:03.513Z,5.90
2023-01-17T02:11:34.893Z,7.30
2023-01-17T02:14:03.200Z,5.97
2023-01-17T02:16:43.899Z,5.23
2023-01-17T02:19:44.991Z,6.87
2023-01-17T02:22:39.291Z,6.00
2023-01-17T02:25:22.383Z,5.70
2023-01-17T02:28:05.209Z,5.30
2023-01-17T02:30:40.621Z,7.43
2023-01-17T02:33:23.442Z,4.60
2023-01-17T02:35:59.765Z,6.47
2023-01-17T02:38:36.575Z,4.63
2023-01-17T02:41:07.962Z,3.70
2023-01-17T02:43:38.463Z,5.93
2023-01-17T02:46:09.760Z,10.83
2023-01-17T02:48:39.793Z,9.47
2023-01-17T02:51:25.415Z,8.00
2023-01-17T02:54:05.267Z,10.23
2023-01-17T02:56:46.050Z,10.50
2023-01-17T02:59:28.885Z,8.30
2023-01-17T03:02:08.454Z,7.57
2023-01-17T03:04:41.393Z,8.70
2023-01-17T03:07:16.369Z,12.27
2023-01-17T03:09:46.973Z,9.57
2023-01-17T03:12:15.541Z,8.30
2023-01-17T03:14:43.962Z,4.57
2023-01-17T03:17:13.663Z,8.73
2023-01-17T03:19:42.016Z,10.07
2023-01-17T03:22:10.753Z,10.67
2023-01-17T03:24:39.073Z,10.73
2023-01-17T03:27:07.349Z,10.20
2023-01-17T03:29:35.808Z,12.40
2023-01-17T03:32:04.465Z,8.47
2023-01-17T03:34:34.137Z,10.53
2023-01-17T03:37:02.574Z,7.63
2023-01-17T03:39:30.979Z,13.63
2023-01-17T03:41:59.355Z,7.53
2023-01-17T03:44:27.753Z,13.40
2023-01-17T03:46:55.972Z,8.77
2023-01-17T03:49:24.251Z,11.27
2023-01-17T03:51:53.893Z,10.40
2023-01-17T03:54:22.297Z,12.30
2023-01-17T03:56:50.859Z,14.67
2023-01-17T03:59:19.267Z,12.43
2023-01-17T04:01:47.873Z,14.33
2023-01-17T04:04:16.446Z,11.93
2023-01-17T04:06:44.793Z,16.53
2023-01-17T04:09:14.434Z,12.20
2023-01-17T04:11:43.123Z,12.47
2023-01-17T04:14:11.485Z,13.67
2023-01-17T04:16:40.051Z,15.03
2023-01-17T04:19:10.096Z,11.67
2023-01-17T04:21:38.560Z,14.13
2023-01-17T04:24:07.531Z,12.83
2023-01-17T04:26:37.268Z,18.80
2023-01-17T04:29:06.003Z,13.30
2023-01-17T04:31:34.678Z,12.13
2023-01-17T04:34:03.099Z,20.13
2023-01-17T04:36:31.625Z,17.27
2023-01-17T04:39:00.061Z,16.70
2023-01-17T04:41:28.770Z,14.00
2023-01-17T04:43:58.676Z,16.57
2023-01-17T04:46:27.097Z,15.90
2023-01-17T04:48:55.470Z,20.43
2023-01-17T04:51:24.187Z,15.73
2023-01-17T04:53:52.473Z,13.43
2023-01-17T04:56:20.971Z,14.33
2023-01-17T04:58:49.442Z,13.93
2023-01-17T05:01:19.281Z,18.83
2023-01-17T05:03:48.043Z,18.33
2023-01-17T05:06:16.329Z,17.40
2023-01-17T05:08:44.951Z,12.73
2023-01-17T05:11:13.906Z,16.10
2023-01-17T05:13:42.251Z,16.70
2023-01-17T05:16:10.647Z,10.40
2023-01-17T05:18:40.243Z,13.63
2023-01-17T05:21:08.832Z,9.33
2023-01-17T05:23:38.034Z,16.27
2023-01-17T05:26:06.513Z,17.10
2023-01-17T05:28:34.940Z,11.97
2023-01-17T05:31:03.559Z,18.60
2023-01-17T05:33:32.173Z,12.67
2023-01-17T05:36:01.764Z,13.93
2023-01-17T05:38:30.228Z,13.17
2023-01-17T05:41:00.957Z,12.23
2023-01-17T05:43:29.346Z,13.80
2023-01-17T05:45:57.820Z,10.93
2023-01-17T05:48:26.344Z,13.40
2023-01-17T05:50:54.983Z,11.97
2023-01-17T05:53:24.709Z,13.60
2023-01-17T05:55:53.076Z,10.43
2023-01-17T05:58:23.564Z,13.60
2023-01-17T06:00:52.288Z,13.97
2023-01-17T06:03:20.601Z,14.80
2023-01-17T06:05:50.228Z,11.17
2023-01-17T06:08:18.719Z,12.70
2023-01-17T06:10:48.668Z,17.43
2023-01-17T06:13:20.912Z,14.63
2023-01-17T06:15:49.699Z,12.27
2023-01-17T06:18:18.961Z,15.83
2023-01-17T06:20:47.369Z,14.53
2023-01-17T06:23:16.056Z,15.00
2023-01-17T06:25:45.547Z,18.10
2023-01-17T06:28:16.776Z,13.73
2023-01-17T06:30:45.432Z,19.63
2023-01-17T06:33:14.045Z,16.83
2023-01-17T06:35:48.913Z,23.93
2023-01-17T06:38:17.336Z,20.60
2023-01-17T06:40:46.042Z,17.97
2023-01-17T06:43:15.823Z,17.80
2023-01-17T06:45:44.079Z,18.17
2023-01-17T06:48:12.405Z,18.60
2023-01-17T06:50:41.010Z,19.00
2023-01-17T06:53:09.594Z,20.90
2023-01-17T06:55:40.436Z,19.50
2023-01-17T06:58:10.530Z,21.87
2023-01-17T07:00:41.052Z,19.73
2023-01-17T07:03:19.236Z,23.17
2023-01-17T07:05:47.859Z,24.00
2023-01-17T07:08:17.069Z,22.47
2023-01-17T07:10:45.650Z,23.30
2023-01-17T07:13:14.811Z,22.50
2023-01-17T07:15:44.609Z,22.13
2023-01-17T07:18:13.012Z,23.40
2023-01-17T07:20:43.955Z,22.93
2023-01-17T07:23:12.592Z,26.47
2023-01-17T07:25:40.980Z,19.60
2023-01-17T07:28:09.264Z,27.53
2023-01-17T07:30:37.925Z,24.83
2023-01-17T07:33:07.556Z,30.07
2023-01-17T07:35:37.235Z,34.73
2023-01-17T07:38:11.298Z,26.53
2023-01-17T07:40:42.325Z,22.43
2023-01-17T07:43:14.261Z,20.70
2023-01-17T07:45:43.599Z,22.50
2023-01-17T07:48:13.921Z,26.80
2023-01-17T07:50:42.220Z,20.08
2023-01-17T07:53:11.189Z,19.33
2023-01-17T07:55:39.583Z,21.40
2023-01-17T07:58:08.025Z,21.17
2023-01-17T08:00:36.659Z,20.97
2023-01-17T08:03:05.930Z,23.85
2023-01-17T08:05:35.544Z,21.23
2023-01-17T08:08:04.124Z,26.17
2023-01-17T08:10:32.670Z,28.17
2023-01-17T08:13:01.347Z,26.87
2023-01-17T08:15:29.803Z,30.53
2023-01-17T08:17:58.803Z,27.67
2023-01-17T08:20:28.216Z,30.60
2023-01-17T08:22:58.143Z,24.10
2023-01-17T08:25:26.993Z,20.43
2023-01-17T08:27:59.115Z,18.07
2023-01-17T08:30:28.109Z,18.90
2023-01-17T08:32:56.752Z,20.13
2023-01-17T08:35:25.206Z,19.40
2023-01-17T08:37:55.896Z,23.27
2023-01-17T08:40:25.943Z,25.47
2023-01-17T08:42:58.038Z,24.30
2023-01-17T08:45:27.523Z,22.87
2023-01-17T08:47:55.838Z,20.43
2023-01-17T08:50:26.159Z,21.17
2023-01-17T08:53:01.265Z,25.30
2023-01-17T08:55:31.194Z,21.60
2023-01-17T08:57:59.743Z,21.07
2023-01-17T09:00:29.958Z,23.93
2023-01-17T09:02:58.362Z,27.13
2023-01-17T09:05:27.002Z,21.67
2023-01-17T09:07:56.539Z,21.00
2023-01-17T09:10:25.114Z,20.97
2023-01-17T09:12:54.747Z,18.97
2023-01-17T09:15:23.213Z,19.67
2023-01-17T09:17:51.568Z,17.20
2023-01-17T09:20:20.166Z,14.63
2023-01-17T09:22:48.541Z,18.93
2023-01-17T09:25:17.092Z,15.23
2023-01-17T09:27:46.969Z,17.13
2023-01-17T09:30:17.487Z,13.37
2023-01-17T09:32:46.580Z,14.03
2023-01-17T09:35:14.999Z,15.63
2023-01-17T09:37:43.275Z,16.23
2023-01-17T09:40:15.705Z,15.93
2023-01-17T09:42:44.588Z,17.47
2023-01-17T09:45:18.334Z,13.87
2023-01-17T09:47:48.674Z,21.50
2023-01-17T09:50:26.375Z,15.17
2023-01-17T09:53:00.804Z,15.83
2023-01-17T09:55:35.274Z,15.87
2023-01-17T09:58:08.064Z,17.67
2023-01-17T10:00:51.710Z,17.77
2023-01-17T10:03:32.794Z,15.90
2023-01-17T10:06:20.265Z,21.27
2023-01-17T10:09:04.741Z,16.07
2023-01-17T10:11:44.040Z,18.27
2023-01-17T10:14:33.121Z,18.17
2023-01-17T10:17:10.545Z,16.93
2023-01-17T10:19:56.056Z,13.80
2023-01-17T10:22:42.733Z,17.10
2023-01-17T10:25:33.144Z,17.20
2023-01-17T10:28:06.398Z,19.90
2023-01-17T10:30:40.281Z,15.03
2023-01-17T10:33:16.673Z,18.93
2023-01-17T10:35:56.930Z,17.33
2023-01-17T10:38:31.870Z,15.70
2023-01-17T10:41:05.715Z,16.53
2023-01-17T10:43:45.501Z,14.30
2023-01-17T10:46:17.923Z,20.10
2023-01-17T10:48:49.647Z,15.13
2023-01-17T10:51:43.125Z,11.10
2023-01-17T10:54:22.932Z,16.50
2023-01-17T10:56:51.477Z,12.77
2023-01-17T10:59:30.960Z,15.13
2023-01-17T11:01:59.834Z,11.13
2023-01-17T11:04:36.662Z,12.33
2023-01-17T11:07:14.160Z,13.63
2023-01-17T11:09:43.978Z,16.60
2023-01-17T11:12:25.806Z,15.97
2023-01-17T11:15:03.755Z,17.57
2023-01-17T11:17:33.188Z,11.50
2023-01-17T11:20:21.363Z,13.10
2023-01-17T11:23:03.981Z,12.47
2023-01-17T11:25:35.029Z,14.33
2023-01-17T11:28:07.330Z,12.70
2023-01-17T11:30:36.083Z,11.03
2023-01-17T11:33:07.077Z,9.37
2023-01-17T11:35:38.886Z,11.33
2023-01-17T11:38:12.930Z,11.77
2023-01-17T11:40:42.545Z,9.13
2023-01-17T11:43:23.395Z,6.37
2023-01-17T11:46:15.880Z,8.17
2023-01-17T11:48:48.823Z,10.53
2023-01-17T11:51:25.233Z,10.40
2023-01-17T11:53:55.366Z,9.57
2023-01-17T11:56:33.225Z,11.20
2023-01-17T11:59:26.249Z,13.57
2023-01-17T12:02:19.789Z,9.83
2023-01-17T12:04:56.053Z,11.10
2023-01-17T12:07:32.671Z,8.80
2023-01-17T12:10:07.428Z,10.07
2023-01-17T12:13:08.695Z,11.47
2023-01-17T12:15:52.201Z,12.07
2023-01-17T12:18:34.602Z,9.27
2023-01-17T12:21:17.387Z,8.43
2023-01-17T12:24:15.726Z,11.20
2023-01-17T12:26:51.513Z,9.07
2023-01-17T12:29:39.882Z,7.50
2023-01-17T12:32:23.787Z,7.03
2023-01-17T12:34:57.188Z,5.97
2023-01-17T12:37:31.811Z,9.57
2023-01-17T12:40:06.179Z,7.67
2023-01-17T12:42:38.852Z,10.07
2023-01-17T12:45:11.044Z,7.73
2023-01-17T12:47:45.227Z,7.97
2023-01-17T12:50:22.397Z,11.63
2023-01-17T12:53:00.063Z,6.90
2023-01-17T12:55:40.626Z,7.40
2023-01-17T12:58:16.816Z,7.90
2023-01-17T13:00:48.141Z,9.63
2023-01-17T13:03:24.738Z,8.17
2023-01-17T13:05:54.220Z,6.67
2023-01-17T13:08:28.258Z,7.67
2023-01-17T13:11:01.267Z,7.60
2023-01-17T13:13:31.618Z,10.30
2023-01-17T13:16:04.462Z,7.40
2023-01-17T13:18:33.470Z,6.93
2023-01-17T13:21:28.270Z,9.03
2023-01-17T13:24:17.322Z,7.43
2023-01-17T13:27:03.559Z,4.90
2023-01-17T13:29:41.619Z,10.07
2023-01-17T13:32:26.118Z,9.30
2023-01-17T13:35:13.830Z,6.53
2023-01-17T13:38:00.633Z,9.33
2023-01-17T13:40:35.334Z,7.63
2023-01-17T13:43:06.741Z,6.30
2023-01-17T13:45:36.815Z,6.63
2023-01-17T13:48:41.463Z,6.23
2023-01-17T13:51:10.267Z,8.50
2023-01-17T13:53:56.906Z,6.73
2023-01-17T13:56:33.144Z,6.93
2023-01-17T13:59:05.074Z,8.10
2023-01-17T14:01:57.306Z,10.30
2023-01-17T14:04:46.303Z,8.33
2023-01-17T14:07:26.345Z,9.17
2023-01-17T14:09:55.023Z,7.50
2023-01-17T14:12:32.366Z,7.90
2023-01-17T14:15:05.766Z,6.73
2023-01-17T14:17:45.320Z,8.87
2023-01-17T14:20:44.241Z,11.40
2023-01-17T14:23:54.423Z,20.67
2023-01-17T14:26:37.231Z,14.63
2023-01-17T14:29:43.018Z,12.20
2023-01-17T14:32:14.452Z,7.60
2023-01-17T14:34:45.212Z,16.30
2023-01-17T14:37:25.487Z,11.43
2023-01-17T14:39:53.762Z,6.00
2023-01-17T14:42:24.357Z,11.13
2023-01-17T14:44:57.698Z,6.70
2023-01-17T14:47:30.651Z,8.60
2023-01-17T14:50:22.214Z,5.93
2023-01-17T14:53:07.313Z,7.87
2023-01-17T14:55:35.734Z,9.17
2023-01-17T14:58:04.165Z,7.87
2023-01-17T15:00:35.042Z,5.03
2023-01-17T15:03:05.052Z,7.53
2023-01-17T15:05:34.506Z,1.40
2023-01-17T15:08:03.261Z,2.40
2023-01-17T15:10:33.726Z,2.60
2023-01-17T15:13:09.129Z,2.77
2023-01-17T15:15:39.989Z,2.17
2023-01-17T15:18:23.145Z,2.33
2023-01-17T15:20:56.346Z,1.20
2023-01-17T15:23:29.933Z,2.40
2023-01-17T15:25:59.033Z,1.30
2023-01-17T15:28:27.585Z,1.53
2023-01-17T15:31:11.699Z,7.37
2023-01-17T15:33:43.674Z,14.70
2023-01-17T15:36:23.816Z,15.03
2023-01-17T15:38:59.612Z,5.27
2023-01-17T15:41:32.053Z,29.20
2023-01-17T15:44:00.345Z,9.17
2023-01-17T15:46:41.399Z,33.47
2023-01-17T15:49:17.992Z,4.27
2023-01-17T15:51:52.558Z,4.93
2023-01-17T15:54:34.036Z,7.07
2023-01-17T15:57:07.403Z,7.80
2023-01-17T15:59:45.376Z,12.27
2023-01-17T16:02:43.322Z,10.10
2023-01-17T16:05:41.807Z,8.97
2023-01-17T16:08:26.484Z,13.70
2023-01-17T16:10:58.110Z,5.43
2023-01-17T16:13:26.521Z,7.43
2023-01-17T16:15:54.833Z,9.83
2023-01-17T16:18:25.644Z,12.03
2023-01-17T16:20:59.396Z,10.53
2023-01-17T16:23:28.135Z,12.23
2023-01-17T16:25:56.392Z,11.07
2023-01-17T16:28:24.919Z,11.60
2023-01-17T16:30:54.304Z,14.60
2023-01-17T16:33:22.831Z,30.43
2023-01-17T16:35:54.693Z,31.33
2023-01-17T16:38:24.563Z,28.00
2023-01-17T16:40:54.042Z,32.60
2023-01-17T16:43:22.209Z,26.20
2023-01-17T16:45:53.932Z,26.47
2023-01-17T16:48:22.768Z,16.70
2023-01-17T16:50:53.050Z,17.03
2023-01-17T16:53:25.072Z,17.57
2023-01-17T16:55:56.454Z,20.37
2023-01-17T16:58:24.864Z,20.13
2023-01-17T17:00:55.506Z,15.57
2023-01-17T17:03:24.162Z,21.63
2023-01-17T17:06:00.108Z,20.37
2023-01-17T17:08:30.306Z,18.50
2023-01-17T17:11:09.130Z,18.10
2023-01-17T17:13:37.547Z,18.00
2023-01-17T17:16:11.821Z,17.10
2023-01-17T17:18:40.200Z,20.20
2023-01-17T17:21:09.459Z,20.80
2023-01-17T17:23:39.285Z,20.90
2023-01-17T17:26:08.043Z,21.80
2023-01-17T17:28:36.916Z,16.50
2023-01-17T17:31:07.789Z,18.17
2023-01-17T17:33:36.975Z,21.80
2023-01-17T17:36:10.803Z,23.57
2023-01-17T17:38:50.704Z,27.03
2023-01-17T17:41:20.885Z,27.37
2023-01-17T17:43:49.503Z,26.97
2023-01-17T17:46:18.234Z,25.03
2023-01-17T17:48:46.740Z,25.30
2023-01-17T17:51:26.196Z,26.30
2023-01-17T17:53:56.864Z,30.53
2023-01-17T17:56:25.370Z,23.13
2023-01-17T17:58:53.985Z,24.55
2023-01-17T18:01:24.490Z,26.13
2023-01-17T18:03:53.521Z,24.73
2023-01-17T18:06:22.620Z,22.60
2023-01-17T18:08:52.205Z,30.77
2023-01-17T18:11:23.128Z,27.37
2023-01-17T18:13:52.757Z,27.73
2023-01-17T18:16:22.996Z,28.80
2023-01-17T18:18:52.988Z,30.93
2023-01-17T18:21:25.292Z,40.83
2023-01-17T18:23:56.887Z,28.60
2023-01-17T18:26:29.315Z,32.30
2023-01-17T18:28:59.407Z,32.67
2023-01-17T18:31:29.347Z,39.93
2023-01-17T18:33:59.646Z,43.93
2023-01-17T18:36:28.911Z,40.47
2023-01-17T18:38:57.564Z,36.87
2023-01-17T18:41:29.896Z,36.83
2023-01-17T18:43:58.757Z,43.90
2023-01-17T18:46:28.655Z,40.67
2023-01-17T18:48:58.153Z,40.50
2023-01-17T18:51:27.455Z,36.83
2023-01-17T18:53:55.990Z,40.27
2023-01-17T18:56:26.291Z,42.93
2023-01-17T18:58:55.916Z,39.20
2023-01-17T19:01:26.114Z,44.83
2023-01-17T19:03:56.457Z,36.10
2023-01-17T19:06:26.890Z,34.57
2023-01-17T19:08:55.569Z,32.23
2023-01-17T19:11:26.589Z,23.10
2023-01-17T19:13:55.472Z,25.27
2023-01-17T19:16:25.677Z,23.20
2023-01-17T19:18:54.678Z,18.23
2023-01-17T19:21:24.462Z,22.40
2023-01-17T19:23:53.878Z,22.47
2023-01-17T19:26:23.939Z,21.63
2023-01-17T19:28:55.845Z,18.90
2023-01-17T19:31:25.576Z,17.17
2023-01-17T19:33:57.309Z,22.50
2023-01-17T19:36:27.532Z,18.87
2023-01-17T19:39:04.332Z,34.00
2023-01-17T19:41:34.762Z,49.43
2023-01-17T19:44:06.591Z,60.23
2023-01-17T19:46:35.915Z,39.13
2023-01-17T19:49:05.616Z,37.93
2023-01-17T19:51:34.484Z,29.80
2023-01-17T19:54:04.212Z,32.03
2023-01-17T19:56:32.809Z,32.17
2023-01-17T19:59:02.198Z,37.73
2023-01-17T20:01:34.257Z,55.13
2023-01-17T20:04:03.569Z,54.13
2023-01-17T20:06:33.926Z,54.17
2023-01-17T20:09:03.012Z,50.27
2023-01-17T20:11:31.724Z,49.97
2023-01-17T20:14:01.248Z,52.73
2023-01-17T20:16:32.389Z,52.27
2023-01-17T20:19:03.116Z,49.93
2023-01-17T20:21:32.382Z,41.07
2023-01-17T20:24:03.671Z,38.37
2023-01-17T20:26:35.726Z,46.93
2023-01-17T20:29:07.375Z,42.40
2023-01-17T20:31:38.639Z,44.57
2023-01-17T20:34:08.358Z,49.93
2023-01-17T20:36:36.983Z,47.80
2023-01-17T20:39:07.256Z,37.97
2023-01-17T20:41:37.460Z,31.50
2023-01-17T20:44:07.600Z,33.27
2023-01-17T20:46:41.485Z,24.50
2023-01-17T20:49:13.400Z,24.10
2023-01-17T20:51:44.319Z,23.43
2023-01-17T20:54:14.529Z,20.47
2023-01-17T20:56:43.579Z,25.70
2023-01-17T20:59:14.551Z,21.73
2023-01-17T21:01:45.134Z,23.87
2023-01-17T21:04:14.894Z,32.83
2023-01-17T21:06:44.653Z,27.23
2023-01-17T21:09:14.677Z,27.93
2023-01-17T21:11:43.383Z,26.97
2023-01-17T21:14:11.734Z,26.37
2023-01-17T21:16:40.393Z,26.47
2023-01-17T21:19:12.019Z,27.30
2023-01-17T21:21:41.132Z,25.63
2023-01-17T21:24:09.846Z,27.10
2023-01-17T21:26:39.944Z,29.10
2023-01-17T21:29:09.488Z,28.57
2023-01-17T21:31:40.244Z,27.17
2023-01-17T21:34:12.021Z,19.17
2023-01-17T21:36:42.598Z,25.57
2023-01-17T21:39:13.798Z,23.53
2023-01-17T21:41:42.747Z,26.07
2023-01-17T21:44:14.486Z,17.63
2023-01-17T21:46:42.764Z,20.57
2023-01-17T21:49:12.690Z,28.63
2023-01-17T21:52:01.306Z,29.97
2023-01-17T21:54:48.184Z,29.20
2023-01-17T21:57:35.612Z,28.67
2023-01-17T22:00:04.541Z,31.30
2023-01-17T22:02:33.098Z,26.17
2023-01-17T22:05:02.682Z,29.87
2023-01-17T22:07:31.130Z,22.63
2023-01-17T22:09:59.410Z,23.93
2023-01-17T22:12:28.233Z,23.83
2023-01-17T22:14:56.500Z,20.63
2023-01-17T22:17:24.924Z,21.00
2023-01-17T22:19:53.337Z,21.83
2023-01-17T22:22:23.005Z,23.13
2023-01-17T22:24:51.540Z,23.50
2023-01-17T22:27:20.499Z,22.63
2023-01-17T22:29:48.899Z,24.70
2023-01-17T22:32:17.314Z,22.87
2023-01-17T22:34:45.564Z,25.43
2023-01-17T22:37:14.577Z,22.13
2023-01-17T22:39:44.216Z,26.27
2023-01-17T22:42:13.394Z,24.20
2023-01-17T22:44:41.862Z,20.60
2023-01-17T22:47:10.287Z,20.63
2023-01-17T22:49:38.692Z,14.27
2023-01-17T22:52:07.377Z,11.10
2023-01-17T22:54:35.789Z,6.17
2023-01-17T22:57:06.320Z,9.27
2023-01-17T22:59:35.339Z,5.20
2023-01-17T23:02:03.865Z,4.07
2023-01-17T23:04:32.336Z,5.00
2023-01-17T23:07:00.730Z,6.27
2023-01-17T23:09:29.436Z,7.07
2023-01-17T23:11:57.759Z,5.83
2023-01-17T23:14:30.353Z,4.27
2023-01-17T23:17:17.458Z,2.93
2023-01-17T23:19:47.428Z,3.77
2023-01-17T23:22:19.442Z,5.63
2023-01-17T23:24:52.574Z,3.30
2023-01-17T23:27:40.173Z,3.53
2023-01-17T23:30:12.239Z,6.73
2023-01-17T23:32:41.436Z,4.07
2023-01-17T23:35:09.864Z,3.67
2023-01-17T23:37:55.467Z,3.27
2023-01-17T23:40:24.262Z,3.57
2023-01-17T23:43:10.317Z,2.77
2023-01-17T23:45:40.777Z,3.83
2023-01-17T23:48:10.729Z,3.67
2023-01-17T23:50:39.467Z,6.17
2023-01-17T23:53:08.215Z,3.27
2023-01-17T23:55:37.502Z,5.53
2023-01-17T23:58:06.141Z,3.17
